Time;durP1;ratioP1;P1;durP2;ratioP2;P2;SDS_P1;SDS_P2;PMS_P1;PMS_P2;Temp;Humidity;BMP_temperature;BMP_pressure;BME280_temperature;BME280_humidity;BME280_pressure;Samples;Min_cycle;Max_cycle;Signal;HPM_P1;HPM_P2
2021/12/07 00:09:29;;;;;;;19.10;9.98;;;0.60;99.90;;;;;;20667627;28;20121;-74
2021/12/07 00:19:30;;;;;;;21.67;11.60;;;0.50;99.90;;;;;;20669528;28;20500;-74
2021/12/07 00:29:31;;;;;;;30.27;11.25;;;0.50;99.90;;;;;;20663445;28;20104;-74
2021/12/07 00:39:32;;;;;;;56.55;14.13;;;0.50;99.90;;;;;;20664246;28;20026;-76
2021/12/07 00:49:33;;;;;;;24.00;12.20;;;0.50;99.90;;;;;;20664012;28;20038;-76
2021/12/07 00:59:35;;;;;;;25.33;12.48;;;0.50;99.90;;;;;;20663876;28;20026;-76
2021/12/07 01:24:39;;;;;;;61.80;12.60;;;0.50;99.90;;;;;;20663190;28;20026;-76
2021/12/07 01:30:40;;;;;;;51.88;12.25;;;0.50;99.90;;;;;;20662336;28;20026;-74
2021/12/07 02:01:07;;;;;;;24.73;11.65;;;0.60;99.90;;;;;;20665349;28;20076;-74
2021/12/07 02:11:09;;;;;;;33.47;13.93;;;0.50;99.90;;;;;;20677301;28;20501;-74
2021/12/07 02:21:19;;;;;;;32.40;14.18;;;0.50;99.90;;;;;;20679659;28;20041;-74
2021/12/07 02:31:24;;;;;;;35.28;13.30;;;0.50;99.90;;;;;;20674149;28;20038;-74
2021/12/07 02:41:26;;;;;;;28.55;12.27;;;0.50;99.90;;;;;;20673118;28;20042;-74
2021/12/07 02:51:27;;;;;;;30.27;12.80;;;0.50;99.90;;;;;;20672773;28;20034;-74
2021/12/07 03:01:33;;;;;;;27.98;10.90;;;0.50;99.90;;;;;;20672006;28;20068;-73
2021/12/07 03:32:14;;;;;;;18.80;9.65;;;0.60;99.90;;;;;;20671020;28;20041;-74
2021/12/07 03:42:15;;;;;;;19.40;10.25;;;0.70;99.90;;;;;;20668899;28;20031;-74
2021/12/07 03:52:16;;;;;;;17.45;8.93;;;0.80;99.90;;;;;;20667738;28;20038;-74
2021/12/07 04:02:17;;;;;;;17.95;8.60;;;0.80;99.90;;;;;;20644394;28;20045;-74
2021/12/07 04:12:19;;;;;;;19.75;9.95;;;0.80;99.90;;;;;;20584557;28;20490;-74
2021/12/07 04:22:20;;;;;;;22.90;9.65;;;0.80;99.90;;;;;;20587795;28;20081;-75
2021/12/07 04:32:21;;;;;;;22.15;9.82;;;0.80;99.90;;;;;;20585667;28;20027;-74
2021/12/07 04:42:24;;;;;;;17.00;8.90;;;0.80;99.90;;;;;;20585031;28;20036;-74
2021/12/07 05:02:50;;;;;;;23.23;11.18;;;0.80;99.90;;;;;;20583557;28;20111;-74
2021/12/07 05:43:47;;;;;;;23.08;9.80;;;0.80;99.90;;;;;;20671869;28;20050;-75
2021/12/07 05:53:48;;;;;;;30.27;9.85;;;0.90;99.90;;;;;;20648116;28;20450;-72
2021/12/07 06:03:48;;;;;;;18.90;8.13;;;1.10;99.90;;;;;;20633749;28;20069;-74
2021/12/07 06:13:50;;;;;;;19.48;8.27;;;1.10;99.90;;;;;;20605567;28;20031;-74
2021/12/07 06:23:51;;;;;;;13.73;7.22;;;1.20;99.90;;;;;;20607240;28;20050;-75
2021/12/07 06:33:52;;;;;;;42.25;17.10;;;1.30;99.90;;;;;;20609544;28;20038;-74
2021/12/07 06:43:52;;;;;;;25.27;8.95;;;1.30;99.90;;;;;;20612314;28;20035;-74
2021/12/07 06:53:54;;;;;;;22.35;10.07;;;1.30;99.90;;;;;;20593430;28;20034;-74
2021/12/07 07:03:54;;;;;;;24.05;8.75;;;1.30;99.90;;;;;;20617675;28;20072;-73
2021/12/07 07:13:55;;;;;;;18.38;7.45;;;1.30;99.90;;;;;;20672265;28;20027;-76
2021/12/07 07:23:56;;;;;;;15.32;6.95;;;1.30;99.90;;;;;;20671657;28;20146;-75
2021/12/07 07:33:57;;;;;;;28.25;10.23;;;1.40;99.90;;;;;;20652865;28;20029;-75
2021/12/07 07:43:58;;;;;;;23.27;10.18;;;1.50;99.90;;;;;;20670047;28;20062;-76
2021/12/07 07:54:01;;;;;;;19.38;9.73;;;2.30;99.90;;;;;;20668251;28;20452;-75
2021/12/07 08:04:03;;;;;;;16.48;8.30;;;3.00;99.90;;;;;;20668217;28;20038;-75
2021/12/07 08:14:04;;;;;;;12.65;5.13;;;3.80;99.90;;;;;;20663052;28;20036;-75
2021/12/07 08:24:05;;;;;;;;;;;3.40;99.90;;;;;;20667014;28;20125;-75
2021/12/07 08:34:06;;;;;;;20.65;7.78;;;5.00;99.90;;;;;;20666089;28;20405;-73
2021/12/07 08:44:07;;;;;;;;;;;5.10;99.90;;;;;;20666023;28;20045;-76
2021/12/07 08:54:25;;;;;;;5.80;2.50;;;4.20;99.90;;;;;;20664883;28;19956;-75
2021/12/07 09:04:25;;;;;;;5.50;2.65;;;5.30;99.90;;;;;;20663912;28;20038;-76
2021/12/07 09:14:29;;;;;;;;;;;4.70;99.90;;;;;;20663292;28;20037;-75
2021/12/07 09:24:30;;;;;;;4.45;1.60;;;5.30;99.90;;;;;;20663111;28;19913;-75
2021/12/07 09:34:31;;;;;;;5.20;1.98;;;6.50;99.90;;;;;;20662458;28;20030;-76
2021/12/07 09:44:32;;;;;;;12.23;1.80;;;7.50;99.90;;;;;;20661900;28;20030;-75
2021/12/07 09:54:33;;;;;;;7.17;3.07;;;5.60;99.90;;;;;;20661726;28;20037;-75
2021/12/07 10:04:34;;;;;;;8.98;2.53;;;4.50;99.90;;;;;;20661330;28;20293;-75
2021/12/07 10:14:41;;;;;;;16.45;2.97;;;4.70;99.90;;;;;;20661150;28;20042;-75
2021/12/07 10:24:54;;;;;;;4.85;1.90;;;6.10;99.90;;;;;;20673888;28;20683;-75
2021/12/07 10:34:55;;;;;;;3.97;1.33;;;6.30;99.90;;;;;;20675525;28;20037;-76
2021/12/07 10:45:06;;;;;;;6.10;1.87;;;8.70;99.90;;;;;;20674659;28;20069;-75
2021/12/07 10:55:13;;;;;;;3.03;1.90;;;8.30;99.90;;;;;;20634629;28;20033;-75
2021/12/07 11:05:18;;;;;;;2.90;1.75;;;6.90;99.90;;;;;;20595140;28;20800;-75
2021/12/07 11:15:24;;;;;;;6.22;1.73;;;6.00;99.90;;;;;;20609416;28;20034;-76
2021/12/07 11:35:51;;;;;;;13.57;3.97;;;8.10;99.90;;;;;;20650337;28;20030;-77
2021/12/07 11:45:52;;;;;;;8.47;2.37;;;8.80;99.90;;;;;;20670131;28;20068;-76
2021/12/07 11:55:55;;;;;;;8.47;1.77;;;8.90;99.90;;;;;;20669332;28;20444;-77
2021/12/07 12:05:57;;;;;;;5.40;2.30;;;10.00;99.90;;;;;;20625925;28;20564;-76
2021/12/07 12:16:22;;;;;;;4.13;1.70;;;10.70;99.90;;;;;;20587494;28;20027;-76
2021/12/07 12:26:25;;;;;;;4.43;1.92;;;10.70;99.90;;;;;;20586636;28;20105;-75
2021/12/07 12:36:36;;;;;;;6.28;2.35;;;10.00;99.90;;;;;;20583309;28;20038;-75
2021/12/07 12:46:38;;;;;;;4.97;1.83;;;9.70;99.90;;;;;;20584120;28;20084;-75
2021/12/07 12:56:39;;;;;;;16.92;4.90;;;10.20;99.90;;;;;;20584566;28;20049;-75
2021/12/07 13:06:46;;;;;;;67.03;22.50;;;11.50;99.90;;;;;;20583717;28;20102;-76
2021/12/07 13:17:18;;;;;;;14.43;7.05;;;11.80;99.90;;;;;;20583075;28;20046;-75
2021/12/07 13:27:21;;;;;;;4.70;1.30;;;11.40;99.90;;;;;;20557419;28;20405;-75
2021/12/07 13:37:21;;;;;;;10.18;3.30;;;11.80;99.90;;;;;;20582084;28;20122;-75
2021/12/07 13:47:40;;;;;;;5.40;1.77;;;11.30;99.90;;;;;;20607155;28;20612;-75
2021/12/07 13:57:43;;;;;;;3.17;1.25;;;10.90;99.90;;;;;;20631731;28;20179;-75
2021/12/07 14:07:46;;;;;;;3.95;1.33;;;11.00;99.90;;;;;;20635920;28;20038;-76
2021/12/07 14:17:57;;;;;;;3.15;1.40;;;10.20;99.90;;;;;;20629246;28;20444;-76
2021/12/07 14:27:58;;;;;;;10.07;1.70;;;10.40;99.90;;;;;;20656663;28;20035;-76
2021/12/07 14:37:59;;;;;;;;;;;10.10;99.90;;;;;;20628081;28;20521;-76
2021/12/07 14:48:00;;;;;;;5.35;2.88;;;9.40;99.90;;;;;;20600145;28;19914;-76
2021/12/07 14:58:03;;;;;;;3.50;1.50;;;8.70;99.90;;;;;;20654823;28;20034;-75
2021/12/07 15:08:05;;;;;;;4.20;1.60;;;7.80;99.90;;;;;;20654035;28;20413;-76
2021/12/07 15:18:12;;;;;;;2.05;1.45;;;7.10;99.90;;;;;;20635336;28;20030;-75
2021/12/07 15:28:13;;;;;;;6.47;2.10;;;4.80;99.90;;;;;;20610579;28;20114;-75
2021/12/07 15:38:20;;;;;;;6.07;2.60;;;3.90;99.90;;;;;;20601441;28;20050;-77
2021/12/07 15:48:20;;;;;;;3.58;2.30;;;3.90;99.90;;;;;;20584817;28;20100;-76
2021/12/07 15:58:24;;;;;;;;;;;3.30;99.90;;;;;;20650492;28;20034;-75
2021/12/07 16:08:31;;;;;;;5.13;2.85;;;3.10;99.90;;;;;;20648780;28;19921;-76
2021/12/07 16:18:35;;;;;;;6.10;2.80;;;3.00;99.90;;;;;;20596089;28;20062;-75
2021/12/07 16:28:40;;;;;;;4.72;2.67;;;3.00;99.90;;;;;;20601932;28;20038;-76
2021/12/07 16:38:43;;;;;;;16.92;5.25;;;2.80;99.90;;;;;;20646978;28;20536;-74
2021/12/07 16:48:44;;;;;;;6.13;3.75;;;2.50;99.90;;;;;;20621380;28;20480;-76
2021/12/07 16:58:45;;;;;;;11.10;5.15;;;2.30;99.90;;;;;;20601750;28;20092;-76
2021/12/07 17:08:46;;;;;;;5.82;2.85;;;2.40;99.90;;;;;;20643588;28;20042;-77
2021/12/07 17:18:47;;;;;;;9.25;4.53;;;2.60;99.90;;;;;;20643510;28;20057;-75
2021/12/07 17:28:48;;;;;;;10.68;3.65;;;2.50;99.90;;;;;;20576433;28;20059;-74
2021/12/07 17:38:52;;;;;;;6.78;3.35;;;2.40;99.90;;;;;;20640148;28;20070;-74
2021/12/07 17:48:53;;;;;;;10.82;5.07;;;2.50;99.90;;;;;;20610189;28;20709;-76
2021/12/07 17:58:54;;;;;;;7.50;3.95;;;2.30;99.90;;;;;;20568321;28;20110;-78
2021/12/07 18:08:55;;;;;;;7.43;4.20;;;2.40;99.90;;;;;;20570175;28;20034;-78
2021/12/07 18:18:56;;;;;;;47.83;17.02;;;2.40;99.90;;;;;;20564419;28;20502;-78
2021/12/07 18:28:57;;;;;;;6.30;3.83;;;2.20;99.90;;;;;;20605889;28;20026;-78
2021/12/07 18:38:58;;;;;;;8.40;3.65;;;2.20;99.90;;;;;;20605628;28;20705;-78
2021/12/07 18:48:59;;;;;;;11.85;5.25;;;2.30;99.90;;;;;;20621610;28;20031;-78
2021/12/07 18:59:00;;;;;;;9.45;4.90;;;2.30;99.90;;;;;;20628895;28;20038;-78
2021/12/07 19:09:03;;;;;;;10.65;4.38;;;2.00;99.90;;;;;;20613320;28;20039;-77
2021/12/07 19:19:04;;;;;;;11.68;5.85;;;2.10;99.90;;;;;;20632682;28;20034;-77
2021/12/07 19:29:05;;;;;;;10.43;3.97;;;2.00;99.90;;;;;;20652381;28;20037;-77
2021/12/07 19:39:06;;;;;;;11.48;5.03;;;1.50;99.90;;;;;;20654041;28;20392;-77
2021/12/07 19:49:08;;;;;;;9.07;5.10;;;1.20;99.90;;;;;;20629805;28;20506;-76
2021/12/07 19:59:09;;;;;;;9.50;5.30;;;1.50;99.90;;;;;;20572528;28;20042;-76
2021/12/07 20:09:12;;;;;;;12.27;7.18;;;1.40;99.90;;;;;;20614315;28;20791;-77
2021/12/07 20:19:14;;;;;;;16.58;8.10;;;1.40;99.90;;;;;;20607511;28;20398;-76
2021/12/07 20:29:15;;;;;;;14.95;8.50;;;1.40;99.90;;;;;;20606080;28;20026;-77
2021/12/07 20:39:16;;;;;;;13.02;7.45;;;1.30;99.90;;;;;;20614842;28;20547;-73
2021/12/07 20:49:19;;;;;;;13.10;7.72;;;1.40;99.90;;;;;;20641946;28;20089;-75
2021/12/07 20:59:20;;;;;;;16.88;8.80;;;1.50;99.90;;;;;;20621409;28;20065;-75
2021/12/07 21:09:21;;;;;;;18.42;8.50;;;1.50;99.90;;;;;;20620977;28;20026;-75
2021/12/07 21:19:22;;;;;;;15.60;8.68;;;1.40;99.90;;;;;;20625223;28;20026;-76
2021/12/07 21:29:25;;;;;;;21.02;8.80;;;1.40;99.90;;;;;;20625993;28;20493;-75
2021/12/07 21:39:30;;;;;;;14.18;7.90;;;1.50;99.90;;;;;;20623911;28;20106;-76
2021/12/07 21:49:31;;;;;;;20.48;9.50;;;1.50;99.90;;;;;;20617484;28;20034;-76
2021/12/07 21:59:32;;;;;;;20.73;9.85;;;1.50;99.90;;;;;;20619066;28;20081;-76
2021/12/07 22:09:33;;;;;;;17.42;7.78;;;1.50;99.90;;;;;;20602837;28;20466;-75
2021/12/07 22:19:33;;;;;;;21.50;8.50;;;1.60;99.90;;;;;;20586255;28;20088;-76
2021/12/07 22:29:36;;;;;;;16.98;7.68;;;1.40;99.90;;;;;;20595196;28;20031;-75
2021/12/07 22:39:37;;;;;;;12.60;7.38;;;1.60;99.90;;;;;;20594718;28;20544;-76
2021/12/07 22:49:39;;;;;;;16.75;9.07;;;1.60;99.90;;;;;;20594289;28;20023;-76
2021/12/07 22:59:40;;;;;;;21.52;9.77;;;1.50;99.90;;;;;;20592896;28;20073;-74
2021/12/07 23:09:41;;;;;;;20.48;9.63;;;1.20;99.90;;;;;;20592208;28;20449;-75
2021/12/07 23:19:42;;;;;;;21.20;9.32;;;1.10;99.90;;;;;;20589634;28;20038;-76
2021/12/07 23:29:43;;;;;;;17.13;8.85;;;1.10;99.90;;;;;;20592152;28;20026;-75
2021/12/07 23:39:44;;;;;;;17.40;9.10;;;1.20;99.90;;;;;;20590205;28;20054;-75
2021/12/07 23:49:45;;;;;;;21.38;10.77;;;1.20;99.90;;;;;;20589477;28;20478;-76
2021/12/07 23:59:46;;;;;;;21.52;11.93;;;1.20;99.90;;;;;;20589051;28;20098;-76
